sensor_id;sensor_type;location;lat;lon;timestamp;P1;durP1;ratioP1;P2;durP2;ratioP2
30543;SDS011;43388;46.308;4.600;2023-07-30T00:01:44;3.35;;;1.55;;
30543;SDS011;43388;46.308;4.600;2023-07-30T00:04:10;1.70;;;1.60;;
30543;SDS011;43388;46.308;4.600;2023-07-30T00:06:36;3.88;;;2.17;;
30543;SDS011;43388;46.308;4.600;2023-07-30T00:09:02;1.92;;;1.35;;
30543;SDS011;43388;46.308;4.600;2023-07-30T00:11:29;2.10;;;1.48;;
30543;SDS011;43388;46.308;4.600;2023-07-30T00:13:55;2.78;;;1.50;;
30543;SDS011;43388;46.308;4.600;2023-07-30T00:16:21;3.10;;;1.60;;
30543;SDS011;43388;46.308;4.600;2023-07-30T00:18:47;3.30;;;1.73;;
30543;SDS011;43388;46.308;4.600;2023-07-30T00:21:13;1.73;;;1.63;;
30543;SDS011;43388;46.308;4.600;2023-07-30T00:23:39;3.30;;;1.60;;
30543;SDS011;43388;46.308;4.600;2023-07-30T00:26:05;1.80;;;1.70;;
30543;SDS011;43388;46.308;4.600;2023-07-30T00:28:31;2.33;;;1.58;;
30543;SDS011;43388;46.308;4.600;2023-07-30T00:30:57;3.70;;;1.58;;
30543;SDS011;43388;46.308;4.600;2023-07-30T00:33:23;2.15;;;1.90;;
30543;SDS011;43388;46.308;4.600;2023-07-30T00:35:50;2.13;;;1.33;;
30543;SDS011;43388;46.308;4.600;2023-07-30T00:38:17;2.13;;;1.60;;
30543;SDS011;43388;46.308;4.600;2023-07-30T00:40:43;3.40;;;1.60;;
30543;SDS011;43388;46.308;4.600;2023-07-30T00:43:09;4.55;;;1.48;;
30543;SDS011;43388;46.308;4.600;2023-07-30T00:45:36;2.35;;;1.45;;
30543;SDS011;43388;46.308;4.600;2023-07-30T00:48:02;3.75;;;1.40;;
30543;SDS011;43388;46.308;4.600;2023-07-30T00:50:28;1.67;;;1.48;;
30543;SDS011;43388;46.308;4.600;2023-07-30T00:52:55;1.40;;;1.30;;
30543;SDS011;43388;46.308;4.600;2023-07-30T00:55:21;2.08;;;1.38;;
30543;SDS011;43388;46.308;4.600;2023-07-30T00:57:47;3.13;;;1.60;;
30543;SDS011;43388;46.308;4.600;2023-07-30T01:00:13;1.63;;;1.20;;
30543;SDS011;43388;46.308;4.600;2023-07-30T01:02:40;1.45;;;1.33;;
30543;SDS011;43388;46.308;4.600;2023-07-30T01:05:06;2.10;;;1.38;;
30543;SDS011;43388;46.308;4.600;2023-07-30T01:07:32;1.60;;;1.23;;
30543;SDS011;43388;46.308;4.600;2023-07-30T01:10:01;1.67;;;1.42;;
30543;SDS011;43388;46.308;4.600;2023-07-30T01:12:28;1.65;;;1.30;;
30543;SDS011;43388;46.308;4.600;2023-07-30T01:14:56;4.35;;;1.88;;
30543;SDS011;43388;46.308;4.600;2023-07-30T01:17:22;4.65;;;1.65;;
30543;SDS011;43388;46.308;4.600;2023-07-30T01:19:48;1.83;;;1.48;;
30543;SDS011;43388;46.308;4.600;2023-07-30T01:22:19;1.52;;;1.40;;
30543;SDS011;43388;46.308;4.600;2023-07-30T01:24:46;1.92;;;1.73;;
30543;SDS011;43388;46.308;4.600;2023-07-30T01:27:14;3.03;;;1.30;;
30543;SDS011;43388;46.308;4.600;2023-07-30T01:29:47;3.90;;;1.75;;
30543;SDS011;43388;46.308;4.600;2023-07-30T01:32:15;1.30;;;1.20;;
30543;SDS011;43388;46.308;4.600;2023-07-30T01:34:42;1.75;;;1.65;;
30543;SDS011;43388;46.308;4.600;2023-07-30T01:37:11;1.85;;;1.70;;
30543;SDS011;43388;46.308;4.600;2023-07-30T01:39:39;2.25;;;1.65;;
30543;SDS011;43388;46.308;4.600;2023-07-30T01:42:06;2.35;;;1.60;;
30543;SDS011;43388;46.308;4.600;2023-07-30T01:44:32;1.90;;;1.40;;
30543;SDS011;43388;46.308;4.600;2023-07-30T01:46:58;1.65;;;1.40;;
30543;SDS011;43388;46.308;4.600;2023-07-30T01:49:24;1.42;;;1.33;;
30543;SDS011;43388;46.308;4.600;2023-07-30T01:51:50;1.50;;;1.20;;
30543;SDS011;43388;46.308;4.600;2023-07-30T01:54:16;2.33;;;1.42;;
30543;SDS011;43388;46.308;4.600;2023-07-30T01:56:42;2.42;;;1.50;;
30543;SDS011;43388;46.308;4.600;2023-07-30T01:59:08;1.70;;;1.33;;
30543;SDS011;43388;46.308;4.600;2023-07-30T02:01:34;7.57;;;2.20;;
30543;SDS011;43388;46.308;4.600;2023-07-30T02:04:00;9.70;;;4.40;;
30543;SDS011;43388;46.308;4.600;2023-07-30T02:06:26;6.88;;;2.58;;
30543;SDS011;43388;46.308;4.600;2023-07-30T02:08:52;7.28;;;2.35;;
30543;SDS011;43388;46.308;4.600;2023-07-30T02:11:18;2.90;;;2.22;;
30543;SDS011;43388;46.308;4.600;2023-07-30T02:13:44;3.80;;;1.90;;
30543;SDS011;43388;46.308;4.600;2023-07-30T02:16:10;2.05;;;1.73;;
30543;SDS011;43388;46.308;4.600;2023-07-30T02:18:36;1.58;;;1.38;;
30543;SDS011;43388;46.308;4.600;2023-07-30T02:21:02;3.75;;;1.80;;
30543;SDS011;43388;46.308;4.600;2023-07-30T02:23:28;3.00;;;1.73;;
30543;SDS011;43388;46.308;4.600;2023-07-30T02:25:54;1.70;;;1.60;;
30543;SDS011;43388;46.308;4.600;2023-07-30T02:28:20;1.98;;;1.70;;
30543;SDS011;43388;46.308;4.600;2023-07-30T02:30:46;1.83;;;1.50;;
30543;SDS011;43388;46.308;4.600;2023-07-30T02:33:12;2.05;;;1.25;;
30543;SDS011;43388;46.308;4.600;2023-07-30T02:35:38;3.15;;;1.50;;
30543;SDS011;43388;46.308;4.600;2023-07-30T02:38:04;1.63;;;1.50;;
30543;SDS011;43388;46.308;4.600;2023-07-30T02:40:31;2.58;;;1.60;;
30543;SDS011;43388;46.308;4.600;2023-07-30T02:42:57;3.05;;;1.45;;
30543;SDS011;43388;46.308;4.600;2023-07-30T02:45:23;2.28;;;1.77;;
30543;SDS011;43388;46.308;4.600;2023-07-30T02:47:49;1.80;;;1.70;;
30543;SDS011;43388;46.308;4.600;2023-07-30T02:50:15;2.13;;;1.58;;
30543;SDS011;43388;46.308;4.600;2023-07-30T02:52:41;1.88;;;1.55;;
30543;SDS011;43388;46.308;4.600;2023-07-30T02:55:07;3.17;;;1.80;;
30543;SDS011;43388;46.308;4.600;2023-07-30T02:57:33;2.60;;;1.40;;
30543;SDS011;43388;46.308;4.600;2023-07-30T02:59:59;2.13;;;1.70;;
30543;SDS011;43388;46.308;4.600;2023-07-30T03:02:25;2.88;;;1.80;;
30543;SDS011;43388;46.308;4.600;2023-07-30T03:04:51;2.25;;;1.88;;
30543;SDS011;43388;46.308;4.600;2023-07-30T03:07:17;3.75;;;1.77;;
30543;SDS011;43388;46.308;4.600;2023-07-30T03:09:44;2.35;;;2.15;;
30543;SDS011;43388;46.308;4.600;2023-07-30T03:12:10;2.55;;;1.85;;
30543;SDS011;43388;46.308;4.600;2023-07-30T03:14:36;3.00;;;1.95;;
30543;SDS011;43388;46.308;4.600;2023-07-30T03:17:02;3.15;;;2.20;;
30543;SDS011;43388;46.308;4.600;2023-07-30T03:19:29;5.30;;;1.92;;
30543;SDS011;43388;46.308;4.600;2023-07-30T03:21:55;2.10;;;1.63;;
30543;SDS011;43388;46.308;4.600;2023-07-30T03:24:22;4.43;;;2.10;;
30543;SDS011;43388;46.308;4.600;2023-07-30T03:26:47;4.65;;;1.95;;
30543;SDS011;43388;46.308;4.600;2023-07-30T03:29:14;4.78;;;1.85;;
30543;SDS011;43388;46.308;4.600;2023-07-30T03:31:40;2.35;;;2.03;;
30543;SDS011;43388;46.308;4.600;2023-07-30T03:34:06;2.10;;;1.90;;
30543;SDS011;43388;46.308;4.600;2023-07-30T03:36:32;2.92;;;2.22;;
30543;SDS011;43388;46.308;4.600;2023-07-30T03:38:58;3.83;;;2.00;;
30543;SDS011;43388;46.308;4.600;2023-07-30T03:41:25;2.88;;;2.03;;
30543;SDS011;43388;46.308;4.600;2023-07-30T03:43:51;3.25;;;2.22;;
30543;SDS011;43388;46.308;4.600;2023-07-30T03:46:17;3.92;;;1.60;;
30543;SDS011;43388;46.308;4.600;2023-07-30T03:48:43;3.72;;;1.80;;
30543;SDS011;43388;46.308;4.600;2023-07-30T03:51:09;5.57;;;1.83;;
30543;SDS011;43388;46.308;4.600;2023-07-30T03:53:35;2.15;;;1.73;;
30543;SDS011;43388;46.308;4.600;2023-07-30T03:56:01;1.80;;;1.70;;
30543;SDS011;43388;46.308;4.600;2023-07-30T03:58:27;2.92;;;2.25;;
30543;SDS011;43388;46.308;4.600;2023-07-30T04:00:55;2.72;;;1.95;;
30543;SDS011;43388;46.308;4.600;2023-07-30T04:03:21;3.58;;;1.70;;
30543;SDS011;43388;46.308;4.600;2023-07-30T04:05:47;2.70;;;2.05;;
30543;SDS011;43388;46.308;4.600;2023-07-30T04:08:13;4.72;;;2.45;;
30543;SDS011;43388;46.308;4.600;2023-07-30T04:10:39;3.05;;;2.03;;
30543;SDS011;43388;46.308;4.600;2023-07-30T04:13:05;2.40;;;2.10;;
30543;SDS011;43388;46.308;4.600;2023-07-30T04:15:32;3.70;;;2.15;;
30543;SDS011;43388;46.308;4.600;2023-07-30T04:17:58;1.70;;;1.60;;
30543;SDS011;43388;46.308;4.600;2023-07-30T04:20:24;2.60;;;2.10;;
30543;SDS011;43388;46.308;4.600;2023-07-30T04:22:51;2.03;;;1.88;;
30543;SDS011;43388;46.308;4.600;2023-07-30T04:25:17;2.13;;;1.70;;
30543;SDS011;43388;46.308;4.600;2023-07-30T04:27:43;2.63;;;2.10;;
30543;SDS011;43388;46.308;4.600;2023-07-30T04:30:09;3.92;;;2.42;;
30543;SDS011;43388;46.308;4.600;2023-07-30T04:32:35;4.43;;;2.50;;
30543;SDS011;43388;46.308;4.600;2023-07-30T04:35:01;7.13;;;2.63;;
30543;SDS011;43388;46.308;4.600;2023-07-30T04:37:30;4.97;;;2.53;;
30543;SDS011;43388;46.308;4.600;2023-07-30T04:39:56;3.10;;;2.70;;
30543;SDS011;43388;46.308;4.600;2023-07-30T04:42:22;3.78;;;2.40;;
30543;SDS011;43388;46.308;4.600;2023-07-30T04:44:48;2.45;;;2.17;;
30543;SDS011;43388;46.308;4.600;2023-07-30T04:47:14;2.83;;;2.55;;
30543;SDS011;43388;46.308;4.600;2023-07-30T04:49:41;3.60;;;2.33;;
30543;SDS011;43388;46.308;4.600;2023-07-30T04:52:07;3.75;;;2.50;;
30543;SDS011;43388;46.308;4.600;2023-07-30T04:54:33;6.40;;;2.50;;
30543;SDS011;43388;46.308;4.600;2023-07-30T04:57:01;4.45;;;2.65;;
30543;SDS011;43388;46.308;4.600;2023-07-30T04:59:27;6.93;;;2.90;;
30543;SDS011;43388;46.308;4.600;2023-07-30T05:01:53;3.20;;;2.75;;
30543;SDS011;43388;46.308;4.600;2023-07-30T05:04:19;3.95;;;2.28;;
30543;SDS011;43388;46.308;4.600;2023-07-30T05:06:45;3.72;;;2.65;;
30543;SDS011;43388;46.308;4.600;2023-07-30T05:09:11;3.40;;;2.50;;
30543;SDS011;43388;46.308;4.600;2023-07-30T05:11:40;8.77;;;3.47;;
30543;SDS011;43388;46.308;4.600;2023-07-30T05:14:06;3.67;;;2.78;;
30543;SDS011;43388;46.308;4.600;2023-07-30T05:16:32;4.28;;;2.72;;
30543;SDS011;43388;46.308;4.600;2023-07-30T05:18:58;4.03;;;2.30;;
30543;SDS011;43388;46.308;4.600;2023-07-30T05:21:24;3.58;;;2.45;;
30543;SDS011;43388;46.308;4.600;2023-07-30T05:23:50;5.05;;;2.40;;
30543;SDS011;43388;46.308;4.600;2023-07-30T05:26:16;7.03;;;2.92;;
30543;SDS011;43388;46.308;4.600;2023-07-30T05:28:42;3.53;;;2.72;;
30543;SDS011;43388;46.308;4.600;2023-07-30T05:31:08;3.33;;;2.83;;
30543;SDS011;43388;46.308;4.600;2023-07-30T05:33:34;6.85;;;2.92;;
30543;SDS011;43388;46.308;4.600;2023-07-30T05:36:00;4.13;;;2.85;;
30543;SDS011;43388;46.308;4.600;2023-07-30T05:38:26;6.95;;;3.78;;
30543;SDS011;43388;46.308;4.600;2023-07-30T05:40:52;4.97;;;2.80;;
30543;SDS011;43388;46.308;4.600;2023-07-30T05:43:19;6.28;;;2.78;;
30543;SDS011;43388;46.308;4.600;2023-07-30T05:45:45;4.05;;;2.95;;
30543;SDS011;43388;46.308;4.600;2023-07-30T05:48:11;5.70;;;2.85;;
30543;SDS011;43388;46.308;4.600;2023-07-30T05:50:37;4.85;;;3.10;;
30543;SDS011;43388;46.308;4.600;2023-07-30T05:53:03;4.32;;;3.15;;
30543;SDS011;43388;46.308;4.600;2023-07-30T05:55:29;5.40;;;3.20;;
30543;SDS011;43388;46.308;4.600;2023-07-30T05:57:55;3.78;;;2.95;;
30543;SDS011;43388;46.308;4.600;2023-07-30T06:00:21;10.45;;;3.60;;
30543;SDS011;43388;46.308;4.600;2023-07-30T06:02:47;5.68;;;3.05;;
30543;SDS011;43388;46.308;4.600;2023-07-30T06:05:13;3.55;;;2.63;;
30543;SDS011;43388;46.308;4.600;2023-07-30T06:07:39;3.97;;;3.08;;
30543;SDS011;43388;46.308;4.600;2023-07-30T06:10:05;4.70;;;2.90;;
30543;SDS011;43388;46.308;4.600;2023-07-30T06:12:31;3.88;;;2.80;;
30543;SDS011;43388;46.308;4.600;2023-07-30T06:14:57;6.28;;;3.00;;
30543;SDS011;43388;46.308;4.600;2023-07-30T06:17:23;5.10;;;2.70;;
30543;SDS011;43388;46.308;4.600;2023-07-30T06:19:50;5.05;;;3.08;;
30543;SDS011;43388;46.308;4.600;2023-07-30T06:22:15;6.63;;;3.00;;
30543;SDS011;43388;46.308;4.600;2023-07-30T06:24:41;5.40;;;2.55;;
30543;SDS011;43388;46.308;4.600;2023-07-30T06:27:07;7.15;;;3.38;;
30543;SDS011;43388;46.308;4.600;2023-07-30T06:29:35;5.00;;;2.88;;
30543;SDS011;43388;46.308;4.600;2023-07-30T06:32:01;5.82;;;2.83;;
30543;SDS011;43388;46.308;4.600;2023-07-30T06:34:27;6.47;;;3.00;;
30543;SDS011;43388;46.308;4.600;2023-07-30T06:36:53;4.68;;;2.60;;
30543;SDS011;43388;46.308;4.600;2023-07-30T06:39:19;5.70;;;2.70;;
30543;SDS011;43388;46.308;4.600;2023-07-30T06:41:45;8.93;;;3.30;;
30543;SDS011;43388;46.308;4.600;2023-07-30T06:44:11;4.20;;;2.75;;
30543;SDS011;43388;46.308;4.600;2023-07-30T06:46:37;6.13;;;2.97;;
30543;SDS011;43388;46.308;4.600;2023-07-30T06:49:03;4.78;;;2.78;;
30543;SDS011;43388;46.308;4.600;2023-07-30T06:51:29;3.63;;;2.53;;
30543;SDS011;43388;46.308;4.600;2023-07-30T06:53:56;4.30;;;2.88;;
30543;SDS011;43388;46.308;4.600;2023-07-30T06:56:22;5.88;;;2.85;;
30543;SDS011;43388;46.308;4.600;2023-07-30T06:58:48;7.68;;;3.10;;
30543;SDS011;43388;46.308;4.600;2023-07-30T07:01:14;13.15;;;2.90;;
30543;SDS011;43388;46.308;4.600;2023-07-30T07:03:40;3.20;;;2.65;;
30543;SDS011;43388;46.308;4.600;2023-07-30T07:06:06;6.35;;;2.33;;
30543;SDS011;43388;46.308;4.600;2023-07-30T07:08:32;3.53;;;2.22;;
30543;SDS011;43388;46.308;4.600;2023-07-30T07:10:58;5.22;;;2.60;;
30543;SDS011;43388;46.308;4.600;2023-07-30T07:13:24;2.30;;;2.10;;
30543;SDS011;43388;46.308;4.600;2023-07-30T07:15:50;3.60;;;1.85;;
30543;SDS011;43388;46.308;4.600;2023-07-30T07:18:17;3.75;;;1.95;;
30543;SDS011;43388;46.308;4.600;2023-07-30T07:20:43;6.15;;;2.53;;
30543;SDS011;43388;46.308;4.600;2023-07-30T07:23:09;2.65;;;1.83;;
30543;SDS011;43388;46.308;4.600;2023-07-30T07:25:35;4.10;;;2.20;;
30543;SDS011;43388;46.308;4.600;2023-07-30T07:28:02;6.68;;;2.22;;
30543;SDS011;43388;46.308;4.600;2023-07-30T07:30:28;4.40;;;2.30;;
30543;SDS011;43388;46.308;4.600;2023-07-30T07:32:54;5.40;;;2.20;;
30543;SDS011;43388;46.308;4.600;2023-07-30T07:35:21;2.75;;;1.98;;
30543;SDS011;43388;46.308;4.600;2023-07-30T07:37:47;3.58;;;1.88;;
30543;SDS011;43388;46.308;4.600;2023-07-30T07:40:13;4.20;;;2.38;;
30543;SDS011;43388;46.308;4.600;2023-07-30T07:42:39;2.47;;;1.90;;
30543;SDS011;43388;46.308;4.600;2023-07-30T07:45:06;3.55;;;2.03;;
30543;SDS011;43388;46.308;4.600;2023-07-30T07:47:32;3.85;;;2.22;;
30543;SDS011;43388;46.308;4.600;2023-07-30T07:49:58;8.13;;;2.30;;
30543;SDS011;43388;46.308;4.600;2023-07-30T07:52:24;6.80;;;2.33;;
30543;SDS011;43388;46.308;4.600;2023-07-30T07:54:50;3.10;;;2.10;;
30543;SDS011;43388;46.308;4.600;2023-07-30T07:57:16;3.95;;;2.42;;
30543;SDS011;43388;46.308;4.600;2023-07-30T07:59:42;5.45;;;2.13;;
30543;SDS011;43388;46.308;4.600;2023-07-30T08:02:10;4.55;;;2.42;;
30543;SDS011;43388;46.308;4.600;2023-07-30T08:04:37;3.60;;;2.20;;
30543;SDS011;43388;46.308;4.600;2023-07-30T08:07:03;6.05;;;2.30;;
30543;SDS011;43388;46.308;4.600;2023-07-30T08:09:29;4.22;;;2.55;;
30543;SDS011;43388;46.308;4.600;2023-07-30T08:11:56;6.53;;;2.50;;
30543;SDS011;43388;46.308;4.600;2023-07-30T08:14:22;3.63;;;2.25;;
30543;SDS011;43388;46.308;4.600;2023-07-30T08:16:48;5.47;;;2.60;;
30543;SDS011;43388;46.308;4.600;2023-07-30T08:19:14;2.90;;;1.90;;
30543;SDS011;43388;46.308;4.600;2023-07-30T08:21:40;6.93;;;2.75;;
30543;SDS011;43388;46.308;4.600;2023-07-30T08:24:06;4.78;;;2.70;;
30543;SDS011;43388;46.308;4.600;2023-07-30T08:26:32;4.50;;;2.10;;
30543;SDS011;43388;46.308;4.600;2023-07-30T08:28:58;4.50;;;2.55;;
30543;SDS011;43388;46.308;4.600;2023-07-30T08:31:24;6.28;;;2.55;;
30543;SDS011;43388;46.308;4.600;2023-07-30T08:33:50;7.47;;;2.50;;
30543;SDS011;43388;46.308;4.600;2023-07-30T08:36:16;3.65;;;2.10;;
30543;SDS011;43388;46.308;4.600;2023-07-30T08:38:42;4.63;;;2.38;;
30543;SDS011;43388;46.308;4.600;2023-07-30T08:41:08;5.05;;;2.38;;
30543;SDS011;43388;46.308;4.600;2023-07-30T08:43:35;4.07;;;2.08;;
30543;SDS011;43388;46.308;4.600;2023-07-30T08:46:01;6.15;;;2.20;;
30543;SDS011;43388;46.308;4.600;2023-07-30T08:48:27;3.38;;;2.30;;
30543;SDS011;43388;46.308;4.600;2023-07-30T08:50:56;5.57;;;2.13;;
30543;SDS011;43388;46.308;4.600;2023-07-30T08:53:25;8.10;;;2.63;;
30543;SDS011;43388;46.308;4.600;2023-07-30T08:55:54;3.65;;;2.58;;
30543;SDS011;43388;46.308;4.600;2023-07-30T08:58:22;5.07;;;2.35;;
30543;SDS011;43388;46.308;4.600;2023-07-30T09:00:49;4.75;;;2.38;;
30543;SDS011;43388;46.308;4.600;2023-07-30T09:03:16;3.90;;;2.10;;
30543;SDS011;43388;46.308;4.600;2023-07-30T09:05:43;6.97;;;2.45;;
30543;SDS011;43388;46.308;4.600;2023-07-30T09:08:09;4.68;;;2.30;;
30543;SDS011;43388;46.308;4.600;2023-07-30T09:10:36;6.20;;;2.55;;
30543;SDS011;43388;46.308;4.600;2023-07-30T09:13:02;4.47;;;2.30;;
30543;SDS011;43388;46.308;4.600;2023-07-30T09:15:38;6.57;;;3.30;;
30543;SDS011;43388;46.308;4.600;2023-07-30T09:18:04;4.03;;;2.42;;
30543;SDS011;43388;46.308;4.600;2023-07-30T09:20:37;9.68;;;2.70;;
30543;SDS011;43388;46.308;4.600;2023-07-30T09:23:04;8.85;;;2.25;;
30543;SDS011;43388;46.308;4.600;2023-07-30T09:25:31;6.28;;;2.08;;
30543;SDS011;43388;46.308;4.600;2023-07-30T09:27:57;4.40;;;2.22;;
30543;SDS011;43388;46.308;4.600;2023-07-30T09:30:24;6.00;;;2.78;;
30543;SDS011;43388;46.308;4.600;2023-07-30T09:32:51;6.43;;;2.42;;
30543;SDS011;43388;46.308;4.600;2023-07-30T09:35:18;4.05;;;2.35;;
30543;SDS011;43388;46.308;4.600;2023-07-30T09:37:44;5.60;;;2.15;;
30543;SDS011;43388;46.308;4.600;2023-07-30T09:40:11;3.22;;;2.28;;
30543;SDS011;43388;46.308;4.600;2023-07-30T09:42:38;3.85;;;2.20;;
30543;SDS011;43388;46.308;4.600;2023-07-30T09:45:08;5.43;;;2.20;;
30543;SDS011;43388;46.308;4.600;2023-07-30T09:47:36;3.38;;;2.17;;
30543;SDS011;43388;46.308;4.600;2023-07-30T09:50:02;6.88;;;2.20;;
30543;SDS011;43388;46.308;4.600;2023-07-30T09:52:29;6.32;;;2.40;;
30543;SDS011;43388;46.308;4.600;2023-07-30T09:54:57;6.00;;;2.45;;
30543;SDS011;43388;46.308;4.600;2023-07-30T09:57:24;3.83;;;2.28;;
30543;SDS011;43388;46.308;4.600;2023-07-30T09:59:50;2.90;;;2.00;;
30543;SDS011;43388;46.308;4.600;2023-07-30T10:02:16;4.55;;;2.22;;
30543;SDS011;43388;46.308;4.600;2023-07-30T10:04:43;6.80;;;2.38;;
30543;SDS011;43388;46.308;4.600;2023-07-30T10:07:14;5.50;;;2.08;;
30543;SDS011;43388;46.308;4.600;2023-07-30T10:09:42;3.20;;;2.08;;
30543;SDS011;43388;46.308;4.600;2023-07-30T10:12:14;3.60;;;2.40;;
30543;SDS011;43388;46.308;4.600;2023-07-30T10:14:41;3.10;;;2.15;;
30543;SDS011;43388;46.308;4.600;2023-07-30T10:17:09;10.15;;;2.60;;
30543;SDS011;43388;46.308;4.600;2023-07-30T10:19:35;5.95;;;2.20;;
30543;SDS011;43388;46.308;4.600;2023-07-30T10:24:37;4.25;;;2.25;;
30543;SDS011;43388;46.308;4.600;2023-07-30T10:27:05;5.32;;;2.17;;
30543;SDS011;43388;46.308;4.600;2023-07-30T10:29:31;2.78;;;1.85;;
30543;SDS011;43388;46.308;4.600;2023-07-30T10:32:01;3.65;;;2.65;;
30543;SDS011;43388;46.308;4.600;2023-07-30T10:34:43;5.32;;;2.25;;
30543;SDS011;43388;46.308;4.600;2023-07-30T10:37:09;4.30;;;2.05;;
30543;SDS011;43388;46.308;4.600;2023-07-30T10:39:35;3.05;;;2.08;;
30543;SDS011;43388;46.308;4.600;2023-07-30T10:42:01;5.05;;;2.50;;
30543;SDS011;43388;46.308;4.600;2023-07-30T10:44:28;3.22;;;1.80;;
30543;SDS011;43388;46.308;4.600;2023-07-30T10:46:55;2.70;;;1.90;;
30543;SDS011;43388;46.308;4.600;2023-07-30T10:49:21;5.35;;;2.05;;
30543;SDS011;43388;46.308;4.600;2023-07-30T10:51:47;5.43;;;1.92;;
30543;SDS011;43388;46.308;4.600;2023-07-30T10:54:13;4.28;;;2.25;;
30543;SDS011;43388;46.308;4.600;2023-07-30T10:56:41;3.42;;;2.20;;
30543;SDS011;43388;46.308;4.600;2023-07-30T10:59:09;2.60;;;2.00;;
30543;SDS011;43388;46.308;4.600;2023-07-30T11:06:37;7.13;;;2.25;;
30543;SDS011;43388;46.308;4.600;2023-07-30T11:09:03;8.32;;;2.33;;
30543;SDS011;43388;46.308;4.600;2023-07-30T11:11:29;5.88;;;2.17;;
30543;SDS011;43388;46.308;4.600;2023-07-30T11:13:56;3.55;;;1.67;;
30543;SDS011;43388;46.308;4.600;2023-07-30T11:16:23;3.85;;;1.85;;
30543;SDS011;43388;46.308;4.600;2023-07-30T11:18:49;5.03;;;1.90;;
30543;SDS011;43388;46.308;4.600;2023-07-30T11:21:16;7.93;;;1.90;;
30543;SDS011;43388;46.308;4.600;2023-07-30T11:23:43;5.03;;;2.15;;
30543;SDS011;43388;46.308;4.600;2023-07-30T11:26:13;2.22;;;1.90;;
30543;SDS011;43388;46.308;4.600;2023-07-30T11:28:40;3.00;;;2.05;;
30543;SDS011;43388;46.308;4.600;2023-07-30T11:31:06;4.25;;;2.03;;
30543;SDS011;43388;46.308;4.600;2023-07-30T11:33:36;3.13;;;1.80;;
30543;SDS011;43388;46.308;4.600;2023-07-30T11:36:03;5.65;;;2.47;;
30543;SDS011;43388;46.308;4.600;2023-07-30T11:38:29;3.67;;;1.88;;
30543;SDS011;43388;46.308;4.600;2023-07-30T11:40:56;5.60;;;2.20;;
30543;SDS011;43388;46.308;4.600;2023-07-30T11:43:22;5.18;;;2.17;;
30543;SDS011;43388;46.308;4.600;2023-07-30T11:45:49;2.47;;;1.58;;
30543;SDS011;43388;46.308;4.600;2023-07-30T11:48:15;4.57;;;2.28;;
30543;SDS011;43388;46.308;4.600;2023-07-30T11:53:10;4.30;;;2.00;;
30543;SDS011;43388;46.308;4.600;2023-07-30T11:55:37;2.17;;;1.83;;
30543;SDS011;43388;46.308;4.600;2023-07-30T11:58:03;3.35;;;1.95;;
30543;SDS011;43388;46.308;4.600;2023-07-30T12:00:31;5.78;;;2.22;;
30543;SDS011;43388;46.308;4.600;2023-07-30T12:02:59;4.20;;;2.13;;
30543;SDS011;43388;46.308;4.600;2023-07-30T12:05:34;2.60;;;1.77;;
30543;SDS011;43388;46.308;4.600;2023-07-30T12:08:01;2.85;;;1.98;;
30543;SDS011;43388;46.308;4.600;2023-07-30T12:10:40;2.42;;;1.77;;
30543;SDS011;43388;46.308;4.600;2023-07-30T12:13:14;2.88;;;1.67;;
30543;SDS011;43388;46.308;4.600;2023-07-30T12:15:42;4.97;;;2.53;;
30543;SDS011;43388;46.308;4.600;2023-07-30T12:18:08;4.22;;;2.58;;
30543;SDS011;43388;46.308;4.600;2023-07-30T12:20:34;4.10;;;2.13;;
30543;SDS011;43388;46.308;4.600;2023-07-30T12:23:01;3.15;;;1.77;;
30543;SDS011;43388;46.308;4.600;2023-07-30T12:25:29;4.15;;;2.17;;
30543;SDS011;43388;46.308;4.600;2023-07-30T12:27:55;3.92;;;1.88;;
30543;SDS011;43388;46.308;4.600;2023-07-30T12:30:21;2.40;;;1.73;;
30543;SDS011;43388;46.308;4.600;2023-07-30T12:32:48;4.93;;;1.70;;
30543;SDS011;43388;46.308;4.600;2023-07-30T12:35:14;3.45;;;1.90;;
30543;SDS011;43388;46.308;4.600;2023-07-30T12:37:40;6.05;;;2.17;;
30543;SDS011;43388;46.308;4.600;2023-07-30T12:40:06;2.60;;;1.85;;
30543;SDS011;43388;46.308;4.600;2023-07-30T12:42:33;3.35;;;1.83;;
30543;SDS011;43388;46.308;4.600;2023-07-30T12:44:59;4.10;;;1.95;;
30543;SDS011;43388;46.308;4.600;2023-07-30T12:47:25;3.08;;;2.10;;
30543;SDS011;43388;46.308;4.600;2023-07-30T12:49:51;5.18;;;2.20;;
30543;SDS011;43388;46.308;4.600;2023-07-30T12:52:17;4.30;;;2.20;;
30543;SDS011;43388;46.308;4.600;2023-07-30T12:54:43;5.88;;;1.77;;
30543;SDS011;43388;46.308;4.600;2023-07-30T12:57:09;2.03;;;1.60;;
30543;SDS011;43388;46.308;4.600;2023-07-30T12:59:35;9.40;;;2.08;;
30543;SDS011;43388;46.308;4.600;2023-07-30T13:02:01;2.63;;;1.77;;
30543;SDS011;43388;46.308;4.600;2023-07-30T13:04:27;3.45;;;1.98;;
30543;SDS011;43388;46.308;4.600;2023-07-30T13:06:53;3.88;;;2.00;;
30543;SDS011;43388;46.308;4.600;2023-07-30T13:09:20;4.97;;;2.13;;
30543;SDS011;43388;46.308;4.600;2023-07-30T13:11:46;4.30;;;2.00;;
30543;SDS011;43388;46.308;4.600;2023-07-30T13:14:12;2.80;;;1.55;;
30543;SDS011;43388;46.308;4.600;2023-07-30T13:16:38;3.03;;;1.90;;
30543;SDS011;43388;46.308;4.600;2023-07-30T13:19:04;4.47;;;1.95;;
30543;SDS011;43388;46.308;4.600;2023-07-30T13:21:30;4.05;;;2.08;;
30543;SDS011;43388;46.308;4.600;2023-07-30T13:23:56;2.50;;;1.60;;
30543;SDS011;43388;46.308;4.600;2023-07-30T13:26:22;4.05;;;1.80;;
30543;SDS011;43388;46.308;4.600;2023-07-30T13:28:48;3.20;;;1.73;;
30543;SDS011;43388;46.308;4.600;2023-07-30T13:31:14;5.43;;;2.05;;
30543;SDS011;43388;46.308;4.600;2023-07-30T13:33:40;3.85;;;2.40;;
30543;SDS011;43388;46.308;4.600;2023-07-30T13:36:07;4.03;;;1.95;;
30543;SDS011;43388;46.308;4.600;2023-07-30T13:38:33;6.50;;;2.30;;
30543;SDS011;43388;46.308;4.600;2023-07-30T13:40:59;2.17;;;1.63;;
30543;SDS011;43388;46.308;4.600;2023-07-30T13:43:25;3.60;;;2.20;;
30543;SDS011;43388;46.308;4.600;2023-07-30T13:45:51;7.35;;;1.63;;
30543;SDS011;43388;46.308;4.600;2023-07-30T13:48:17;5.20;;;2.08;;
30543;SDS011;43388;46.308;4.600;2023-07-30T13:50:43;7.45;;;2.08;;
30543;SDS011;43388;46.308;4.600;2023-07-30T13:53:09;9.38;;;1.90;;
30543;SDS011;43388;46.308;4.600;2023-07-30T13:55:37;4.63;;;1.70;;
30543;SDS011;43388;46.308;4.600;2023-07-30T13:58:03;2.85;;;1.65;;
30543;SDS011;43388;46.308;4.600;2023-07-30T14:00:29;5.72;;;1.95;;
30543;SDS011;43388;46.308;4.600;2023-07-30T14:02:55;5.97;;;1.50;;
30543;SDS011;43388;46.308;4.600;2023-07-30T14:05:21;4.03;;;1.88;;
30543;SDS011;43388;46.308;4.600;2023-07-30T14:07:48;8.35;;;2.03;;
30543;SDS011;43388;46.308;4.600;2023-07-30T14:10:16;7.78;;;1.83;;
30543;SDS011;43388;46.308;4.600;2023-07-30T14:12:42;4.88;;;1.60;;
30543;SDS011;43388;46.308;4.600;2023-07-30T14:15:08;16.60;;;2.35;;
30543;SDS011;43388;46.308;4.600;2023-07-30T14:17:34;4.25;;;1.85;;
30543;SDS011;43388;46.308;4.600;2023-07-30T14:20:00;2.75;;;1.60;;
30543;SDS011;43388;46.308;4.600;2023-07-30T14:22:27;3.47;;;1.58;;
30543;SDS011;43388;46.308;4.600;2023-07-30T14:24:53;4.82;;;2.00;;
30543;SDS011;43388;46.308;4.600;2023-07-30T14:27:19;4.45;;;2.03;;
30543;SDS011;43388;46.308;4.600;2023-07-30T14:29:45;5.60;;;1.95;;
30543;SDS011;43388;46.308;4.600;2023-07-30T14:32:11;5.18;;;2.28;;
30543;SDS011;43388;46.308;4.600;2023-07-30T14:34:37;4.05;;;1.65;;
30543;SDS011;43388;46.308;4.600;2023-07-30T14:37:03;5.97;;;1.80;;
30543;SDS011;43388;46.308;4.600;2023-07-30T14:39:29;3.92;;;1.85;;
30543;SDS011;43388;46.308;4.600;2023-07-30T14:41:55;5.40;;;2.08;;
30543;SDS011;43388;46.308;4.600;2023-07-30T14:44:21;6.63;;;1.83;;
30543;SDS011;43388;46.308;4.600;2023-07-30T14:46:47;3.90;;;2.03;;
30543;SDS011;43388;46.308;4.600;2023-07-30T14:49:13;3.90;;;1.63;;
30543;SDS011;43388;46.308;4.600;2023-07-30T14:51:39;3.47;;;1.95;;
30543;SDS011;43388;46.308;4.600;2023-07-30T14:54:05;4.80;;;2.05;;